PDT,Max TemperatureF,Mean TemperatureF,Min TemperatureF,Max Dew PointF,MeanDew PointF,Min DewpointF,Max Humidity, Mean Humidity, Min Humidity, Max Sea Level PressureIn, Mean Sea Level PressureIn, Min Sea Level PressureIn, Max VisibilityMiles, Mean VisibilityMiles, Min VisibilityMiles, Max Wind SpeedMPH, Mean Wind SpeedMPH, Max Gust SpeedMPH,PrecipitationIn, CloudCover, Events, WindDirDegrees
2013-10-1,84,72,59,57,53,46,87,62,36,29.99,29.93,29.88,10,10,10,13,7,15,0.00,0,,321
2013-10-2,83,67,50,49,44,37,77,49,21,29.98,29.93,29.88,10,10,4,14,6,18,0.00,0,,318
2013-10-3,76,64,52,43,35,28,57,38,19,30.01,29.95,29.91,10,8,4,24,10,29,0.00,4,,323
2013-10-4,81,62,43,39,34,26,76,46,15,30.12,30.04,29.96,10,10,7,8,3,15,0.00,0,,348
2013-10-5,86,66,45,41,36,30,76,45,14,30.22,30.16,30.12,10,10,8,10,3,15,0.00,0,,313
2013-10-6,89,67,44,40,34,20,71,40,8,30.16,30.08,29.99,10,10,8,8,2,9,0.00,0,,354
2013-10-7,86,69,51,42,39,35,68,42,16,29.99,29.92,29.84,10,9,7,8,2,13,0.00,0,,344
2013-10-8,83,65,46,42,38,31,76,46,15,29.88,29.80,29.68,10,8,2,12,5,16,0.00,0,,323
2013-10-9,66,58,49,47,44,41,86,65,43,29.80,29.68,29.63,10,8,4,17,6,25,0.00,3,Thunderstorm,143
2013-10-10,75,62,48,46,43,41,80,56,31,30.00,29.92,29.81,10,9,7,10,3,17,0.00,2,,110
2013-10-11,78,61,43,46,43,41,89,59,28,30.07,30.00,29.94,10,8,2,10,2,13,0.00,0,,331
2013-10-12,80,62,44,46,42,36,82,52,21,30.01,29.94,29.87,10,8,6,8,2,,0.00,0,,309
2013-10-13,74,61,47,46,43,39,86,60,33,30.07,29.98,29.89,10,10,7,20,5,20,0.00,0,,312
2013-10-14,80,62,44,45,42,39,89,57,25,30.13,30.07,29.99,10,8,1,12,3,,0.00,0,,328
2013-10-15,82,64,45,43,40,36,83,52,20,30.06,30.01,29.95,10,9,6,7,3,,0.00,0,,319
2013-10-16,85,64,43,45,37,26,89,51,12,30.13,30.06,30.01,10,8,5,9,2,,0.00,0,,353
2013-10-17,83,64,44,41,38,34,76,47,17,30.10,30.02,29.95,10,8,5,10,3,15,0.00,0,,324
2013-10-18,85,66,47,43,39,34,77,48,18,30.07,30.02,29.97,9,8,5,7,1,10,0.00,0,,19
2013-10-19,86,66,45,44,41,37,82,51,19,30.09,30.03,29.98,9,6,3,7,2,,0.00,0,,335
2013-10-20,84,65,45,44,40,33,86,51,16,30.02,29.96,29.89,10,7,4,9,1,,0.00,0,,333
2013-10-21,85,69,52,46,42,38,83,51,19,29.99,29.94,29.88,9,6,3,5,1,,0.00,0,,22
2013-10-22,86,65,44,47,43,39,83,53,22,30.02,29.95,29.88,8,6,2,8,2,10,0.00,0,,323
2013-10-23,84,65,46,48,44,41,86,55,23,29.95,29.91,29.86,8,6,2,8,3,11,0.00,0,,287
2013-10-24,83,64,45,47,44,39,86,55,23,30.06,29.98,29.92,10,5,2,12,4,15,0.00,0,,326
2013-10-25,78,61,43,47,45,41,93,61,28,30.17,30.11,30.06,9,6,2,8,2,10,0.00,0,,317
2013-10-26,81,62,43,48,45,40,89,60,30,30.16,30.08,30.00,7,6,4,8,2,11,0.00,0,,319
2013-10-27,81,64,46,48,43,40,93,58,23,30.01,29.87,29.68,8,4,2,16,4,23,0.00,0,,137
2013-10-28,65,56,47,48,43,38,86,62,37,29.89,29.78,29.74,10,9,4,20,8,24,T,2,Rain,136
2013-10-29,68,54,39,45,41,38,96,67,37,30.04,29.97,29.91,10,9,6,12,6,19,0.00,0,,2
2013-10-30,69,55,41,44,42,39,92,63,33,30.16,30.10,30.04,10,9,5,12,5,15,0.00,0,,329
2013-10-31,72,56,39,44,41,36,92,62,31,30.21,30.14,30.08,10,8,3,8,2,12,0.00,0,,315